Time,TemperatureF,DewpointF,PressureIn,WindDirection,WindDirectionDegrees,WindSpeedMPH,WindSpeedGustMPH,Humidity,HourlyPrecipIn,Conditions,Clouds,dailyrainin,SoftwareType,DateUTC
2013-08-16 00:04:00,55.0,53.0,29.87,North,0,0.0,-999.0,93,-99.99,,,0.00,Acu-Link.com,2013-08-16 05:04:00,
2013-08-16 00:34:00,54.1,52.4,29.88,North,0,0.0,-999.0,94,-99.99,,,0.00,Acu-Link.com,2013-08-16 05:34:00,
2013-08-16 00:49:00,53.6,52.2,29.88,North,0,0.0,-999.0,95,-99.99,,,0.00,Acu-Link.com,2013-08-16 05:49:00,
2013-08-16 01:05:00,53.4,52.0,29.88,North,0,0.0,-999.0,95,-99.99,,,0.00,Acu-Link.com,2013-08-16 06:05:00,
2013-08-16 01:20:00,53.1,51.7,29.87,North,0,0.0,-999.0,95,-99.99,,,0.00,Acu-Link.com,2013-08-16 06:20:00,
2013-08-16 01:35:00,53.1,52.0,29.87,North,0,0.0,-999.0,96,-99.99,,,0.00,Acu-Link.com,2013-08-16 06:35:00,
2013-08-16 01:50:00,52.9,51.5,29.87,North,0,0.0,-999.0,95,-99.99,,,0.00,Acu-Link.com,2013-08-16 06:50:00,
2013-08-16 02:05:00,52.7,51.6,29.87,North,0,0.0,-999.0,96,-99.99,,,0.00,Acu-Link.com,2013-08-16 07:05:00,
2013-08-16 02:21:00,52.3,51.2,29.87,North,0,0.0,-999.0,96,-99.99,,,0.00,Acu-Link.com,2013-08-16 07:21:00,
2013-08-16 02:36:00,52.2,51.1,29.88,North,0,0.0,-999.0,96,-99.99,,,0.00,Acu-Link.com,2013-08-16 07:36:00,
2013-08-16 02:51:00,51.8,51.0,29.88,North,0,0.0,-999.0,97,-99.99,,,0.00,Acu-Link.com,2013-08-16 07:51:00,
2013-08-16 03:06:00,51.6,50.8,29.88,North,0,0.0,-999.0,97,-99.99,,,0.00,Acu-Link.com,2013-08-16 08:06:00,
2013-08-16 03:22:00,51.6,50.8,29.88,North,0,0.0,-999.0,97,-99.99,,,0.00,Acu-Link.com,2013-08-16 08:22:00,
2013-08-16 03:37:00,51.4,50.6,29.88,North,0,0.0,-999.0,97,-99.99,,,0.00,Acu-Link.com,2013-08-16 08:37:00,
2013-08-16 03:52:00,51.3,50.8,29.88,North,0,0.0,-999.0,98,-99.99,,,0.00,Acu-Link.com,2013-08-16 08:52:00,
2013-08-16 04:07:00,51.1,50.6,29.88,North,0,0.0,-999.0,98,-99.99,,,0.00,Acu-Link.com,2013-08-16 09:07:00,
2013-08-16 04:22:00,50.7,49.9,29.88,North,0,0.0,-999.0,97,-99.99,,,0.00,Acu-Link.com,2013-08-16 09:22:00,
2013-08-16 04:37:00,50.5,49.7,29.89,North,0,0.0,-999.0,97,-99.99,,,0.00,Acu-Link.com,2013-08-16 09:37:00,
2013-08-16 04:52:00,50.4,49.6,29.89,North,0,0.0,-999.0,97,-99.99,,,0.00,Acu-Link.com,2013-08-16 09:52:00,
2013-08-16 05:08:00,50.2,49.7,29.89,North,0,0.0,-999.0,98,-99.99,,,0.00,Acu-Link.com,2013-08-16 10:08:00,
2013-08-16 05:23:00,50.0,49.5,29.90,North,0,0.0,-999.0,98,-99.99,,,0.00,Acu-Link.com,2013-08-16 10:23:00,
2013-08-16 05:38:00,50.0,49.5,29.90,North,0,0.0,-999.0,98,-99.99,,,0.00,Acu-Link.com,2013-08-16 10:38:00,
2013-08-16 05:53:00,49.8,49.3,29.90,North,0,0.0,-999.0,98,-99.99,,,0.00,Acu-Link.com,2013-08-16 10:53:00,
2013-08-16 06:09:00,49.6,49.1,29.91,North,0,0.0,-999.0,98,-99.99,,,0.00,Acu-Link.com,2013-08-16 11:09:00,
2013-08-16 06:24:00,49.5,49.0,29.91,North,0,0.0,-999.0,98,-99.99,,,0.00,Acu-Link.com,2013-08-16 11:24:00,
2013-08-16 06:39:00,49.5,49.0,29.92,North,0,0.0,-999.0,98,-99.99,,,0.00,Acu-Link.com,2013-08-16 11:39:00,
2013-08-16 06:54:00,49.6,49.1,29.92,North,0,0.0,-999.0,98,-99.99,,,0.00,Acu-Link.com,2013-08-16 11:54:00,
2013-08-16 07:09:00,50.5,50.0,29.93,North,0,0.0,-999.0,98,-99.99,,,0.00,Acu-Link.com,2013-08-16 12:09:00,
2013-08-16 07:25:00,52.9,51.8,29.93,North,0,0.0,-999.0,96,-99.99,,,0.00,Acu-Link.com,2013-08-16 12:25:00,
2013-08-16 07:40:00,55.0,53.0,29.93,North,0,0.0,-999.0,93,-99.99,,,0.00,Acu-Link.com,2013-08-16 12:40:00,
2013-08-16 07:55:00,60.3,54.4,29.93,ESE,112,0.0,-999.0,81,-99.99,,,0.00,Acu-Link.com,2013-08-16 12:55:00,
2013-08-16 08:10:00,65.1,56.2,29.94,SSE,157,0.0,-999.0,73,-99.99,,,0.00,Acu-Link.com,2013-08-16 13:10:00,
2013-08-16 08:25:00,67.1,57.4,29.94,East,90,0.0,-999.0,71,-99.99,,,0.00,Acu-Link.com,2013-08-16 13:25:00,
2013-08-16 08:41:00,70.0,58.9,29.94,NW,315,1.7,-999.0,68,-99.99,,,0.00,Acu-Link.com,2013-08-16 13:41:00,
2013-08-16 08:56:00,68.7,57.7,29.94,ESE,112,3.7,-999.0,68,-99.99,,,0.00,Acu-Link.com,2013-08-16 13:56:00,
2013-08-16 09:11:00,71.4,58.6,29.94,SSE,157,2.7,-999.0,64,-99.99,,,0.00,Acu-Link.com,2013-08-16 14:11:00,
2013-08-16 09:26:00,75.4,58.6,29.94,ESE,112,4.2,-999.0,56,-99.99,,,0.00,Acu-Link.com,2013-08-16 14:26:00,
2013-08-16 09:41:00,70.9,59.0,29.93,SSE,157,2.7,-999.0,66,-99.99,,,0.00,Acu-Link.com,2013-08-16 14:41:00,
2013-08-16 09:57:00,72.0,58.7,29.93,ESE,112,3.2,-999.0,63,-99.99,,,0.00,Acu-Link.com,2013-08-16 14:57:00,
2013-08-16 10:12:00,72.9,58.2,29.93,SSE,157,3.7,-999.0,60,-99.99,,,0.00,Acu-Link.com,2013-08-16 15:12:00,
2013-08-16 10:28:00,73.6,57.4,29.93,East,90,3.7,-999.0,57,-99.99,,,0.00,Acu-Link.com,2013-08-16 15:28:00,
2013-08-16 10:43:00,74.1,57.4,29.93,SE,135,4.7,-999.0,56,-99.99,,,0.00,Acu-Link.com,2013-08-16 15:43:00,
2013-08-16 10:59:00,74.3,57.1,29.93,SSE,157,5.3,-999.0,55,-99.99,,,0.00,Acu-Link.com,2013-08-16 15:59:00,
2013-08-16 11:14:00,75.0,57.2,29.93,SW,225,4.7,-999.0,54,-99.99,,,0.00,Acu-Link.com,2013-08-16 16:14:00,
2013-08-16 11:29:00,73.9,56.7,29.93,ESE,112,3.2,-999.0,55,-99.99,,,0.00,Acu-Link.com,2013-08-16 16:29:00,
2013-08-16 11:44:00,73.8,55.6,29.93,SSE,157,1.7,-999.0,53,-99.99,,,0.00,Acu-Link.com,2013-08-16 16:44:00,
2013-08-16 12:00:00,73.6,55.9,29.93,ESE,112,3.7,-999.0,54,-99.99,,,0.00,Acu-Link.com,2013-08-16 17:00:00,
2013-08-16 12:15:00,75.2,56.3,29.93,SSE,157,3.7,-999.0,52,-99.99,,,0.00,Acu-Link.com,2013-08-16 17:15:00,
2013-08-16 12:30:00,72.7,55.6,29.92,NNW,337,2.2,-999.0,55,-99.99,,,0.00,Acu-Link.com,2013-08-16 17:30:00,
2013-08-16 12:45:00,73.8,55.6,29.92,SE,135,2.7,-999.0,53,-99.99,,,0.00,Acu-Link.com,2013-08-16 17:45:00,
2013-08-16 13:00:00,75.9,57.0,29.92,ESE,112,3.2,-999.0,52,-99.99,,,0.00,Acu-Link.com,2013-08-16 18:00:00,
2013-08-16 13:16:00,77.2,56.5,29.91,SE,135,2.2,-999.0,49,-99.99,,,0.00,Acu-Link.com,2013-08-16 18:16:00,
2013-08-16 13:31:00,76.8,55.6,29.91,SSE,157,3.2,-999.0,48,-99.99,,,0.00,Acu-Link.com,2013-08-16 18:31:00,
2013-08-16 13:46:00,74.8,56.0,29.91,SSE,157,3.2,-999.0,52,-99.99,,,0.00,Acu-Link.com,2013-08-16 18:46:00,
2013-08-16 14:01:00,76.3,54.0,29.90,SE,135,3.7,-999.0,46,-99.99,,,0.00,Acu-Link.com,2013-08-16 19:01:00,
2013-08-16 14:16:00,75.2,54.7,29.90,SSE,157,2.2,-999.0,49,-99.99,,,0.00,Acu-Link.com,2013-08-16 19:16:00,
2013-08-16 14:32:00,76.6,55.4,29.90,ESE,112,4.7,-999.0,48,-99.99,,,0.00,Acu-Link.com,2013-08-16 19:32:00,
2013-08-16 14:47:00,76.1,54.4,29.90,SSE,157,3.2,-999.0,47,-99.99,,,0.00,Acu-Link.com,2013-08-16 19:47:00,
2013-08-16 15:02:00,79.7,56.5,29.89,SE,135,2.7,-999.0,45,-99.99,,,0.00,Acu-Link.com,2013-08-16 20:02:00,
2013-08-16 15:18:00,75.4,54.3,29.89,NE,45,1.7,-999.0,48,-99.99,,,0.00,Acu-Link.com,2013-08-16 20:18:00,
2013-08-16 15:33:00,75.2,56.3,29.89,East,90,2.7,-999.0,52,-99.99,,,0.00,Acu-Link.com,2013-08-16 20:33:00,
2013-08-16 15:48:00,76.3,54.6,29.89,SSE,157,4.2,-999.0,47,-99.99,,,0.00,Acu-Link.com,2013-08-16 20:48:00,
2013-08-16 16:03:00,74.7,54.8,29.88,East,90,1.1,-999.0,50,-99.99,,,0.00,Acu-Link.com,2013-08-16 21:03:00,
2013-08-16 16:18:00,77.5,53.2,29.88,East,90,4.2,-999.0,43,-99.99,,,0.00,Acu-Link.com,2013-08-16 21:18:00,
2013-08-16 16:34:00,78.4,55.3,29.88,SSE,157,2.7,-999.0,45,-99.99,,,0.00,Acu-Link.com,2013-08-16 21:34:00,
2013-08-16 16:49:00,77.9,55.4,29.88,SSE,157,2.2,-999.0,46,-99.99,,,0.00,Acu-Link.com,2013-08-16 21:49:00,
2013-08-16 17:04:00,77.7,55.3,29.88,SW,225,0.0,-999.0,46,-99.99,,,0.00,Acu-Link.com,2013-08-16 22:04:00,
2013-08-16 17:19:00,76.6,57.6,29.88,SSE,157,4.7,-999.0,52,-99.99,,,0.00,Acu-Link.com,2013-08-16 22:19:00,
2013-08-16 17:34:00,75.4,56.0,29.88,ESE,112,2.2,-999.0,51,-99.99,,,0.00,Acu-Link.com,2013-08-16 22:34:00,
2013-08-16 17:50:00,78.6,54.2,29.88,SSW,202,0.0,-999.0,43,-99.99,,,0.00,Acu-Link.com,2013-08-16 22:50:00,
2013-08-16 18:05:00,77.4,53.8,29.88,SE,135,1.7,-999.0,44,-99.99,,,0.00,Acu-Link.com,2013-08-16 23:05:00,
2013-08-16 18:20:00,76.8,55.0,29.88,East,90,1.7,-999.0,47,-99.99,,,0.00,Acu-Link.com,2013-08-16 23:20:00,
2013-08-16 18:35:00,75.9,54.8,29.88,WSW,247,3.2,-999.0,48,-99.99,,,0.00,Acu-Link.com,2013-08-16 23:35:00,
2013-08-16 18:51:00,75.4,56.0,29.88,ESE,112,1.7,-999.0,51,-99.99,,,0.00,Acu-Link.com,2013-08-16 23:51:00,
2013-08-16 19:06:00,75.0,56.2,29.88,North,0,0.0,-999.0,52,-99.99,,,0.00,Acu-Link.com,2013-08-17 00:06:00,
2013-08-16 19:21:00,74.1,56.4,29.88,North,0,0.0,-999.0,54,-99.99,,,0.00,Acu-Link.com,2013-08-17 00:21:00,
2013-08-16 19:36:00,73.2,56.1,29.88,North,0,0.0,-999.0,55,-99.99,,,0.00,Acu-Link.com,2013-08-17 00:36:00,
2013-08-16 19:51:00,71.8,57.2,29.89,North,0,0.0,-999.0,60,-99.99,,,0.00,Acu-Link.com,2013-08-17 00:51:00,
2013-08-16 20:07:00,70.0,58.1,29.89,North,0,0.0,-999.0,66,-99.99,,,0.00,Acu-Link.com,2013-08-17 01:07:00,
2013-08-16 20:22:00,68.5,57.5,29.89,North,0,0.0,-999.0,68,-99.99,,,0.00,Acu-Link.com,2013-08-17 01:22:00,
2013-08-16 20:37:00,67.3,58.0,29.89,North,0,0.0,-999.0,72,-99.99,,,0.00,Acu-Link.com,2013-08-17 01:37:00,
2013-08-16 20:52:00,65.8,57.6,29.90,North,0,0.0,-999.0,75,-99.99,,,0.00,Acu-Link.com,2013-08-17 01:52:00,
2013-08-16 21:08:00,64.4,57.0,29.90,North,0,0.0,-999.0,77,-99.99,,,0.00,Acu-Link.com,2013-08-17 02:08:00,
2013-08-16 21:23:00,63.7,56.7,29.91,North,0,0.0,-999.0,78,-99.99,,,0.00,Acu-Link.com,2013-08-17 02:23:00,
2013-08-16 21:38:00,63.1,56.5,29.91,North,0,0.0,-999.0,79,-99.99,,,0.00,Acu-Link.com,2013-08-17 02:38:00,
2013-08-16 21:53:00,62.2,56.3,29.91,North,0,0.0,-999.0,81,-99.99,,,0.00,Acu-Link.com,2013-08-17 02:53:00,
2013-08-16 22:09:00,61.5,55.6,29.90,North,0,0.0,-999.0,81,-99.99,,,0.00,Acu-Link.com,2013-08-17 03:09:00,
2013-08-16 22:24:00,60.8,55.6,29.91,North,0,0.0,-999.0,83,-99.99,,,0.00,Acu-Link.com,2013-08-17 03:24:00,
2013-08-16 22:39:00,60.1,55.2,29.91,North,0,0.0,-999.0,84,-99.99,,,0.00,Acu-Link.com,2013-08-17 03:39:00,
2013-08-16 22:54:00,59.5,55.0,29.91,North,0,0.0,-999.0,85,-99.99,,,0.00,Acu-Link.com,2013-08-17 03:54:00,
2013-08-16 23:09:00,59.0,55.1,29.91,North,0,0.0,-999.0,87,-99.99,,,0.00,Acu-Link.com,2013-08-17 04:09:00,
2013-08-16 23:25:00,58.5,55.3,29.91,North,0,0.0,-999.0,89,-99.99,,,0.00,Acu-Link.com,2013-08-17 04:25:00,
2013-08-16 23:40:00,57.9,55.0,29.91,North,0,0.0,-999.0,90,-99.99,,,0.00,Acu-Link.com,2013-08-17 04:40:00,
2013-08-16 23:55:00,57.7,55.4,29.91,North,0,0.0,-999.0,92,-99.99,,,0.00,Acu-Link.com,2013-08-17 04:55:00,